Terminal Aerodrome Forecast
Issued by NWS

Home | Current Version | Previous Version | Text Only | Print | Product List | Glossary On
Versions: 1 2 3 4 5 6 7 8 9 10 11 12 13 14 15 16 17 18 19
000
FTUS43 KDTX 092333
TAFMBS
TAF
KMBS 092333Z 1000/1024 27009KT P6SM BKN040
     FM101500 25010KT P6SM SCT022 BKN035=

USA.gov is the U.S. government's official web portal to all federal, state and local government web resources and services.